Estación Meteorológica Peña el Pijo (Robertgarden) [ 12/10/18 11:16:06 CET ]

Fecha Hora Presion(HPa) Temp (°C) Humedad % Rocio (°C) Viento ( m/s) Direccion Lluvia 1Hora(mm) Lluvia 24H(mm) LLuvia Total(mm)
2018-Oct-25 01:01:46 1013.400 6.6 78 3.0         84.95
2018-Oct-25 02:01:38 1013.300 6.3 80 3.1         84.95
2018-Oct-25 03:01:44 1013.100 5.8 81 2.8         84.95
2018-Oct-25 04:01:42 1012.700 5.3 82 2.4         84.95
2018-Oct-25 05:06:04 1012.000 4.8 83 2.1         84.95
2018-Oct-25 06:05:09 1011.900 4.5 83 1.8         84.95
2018-Oct-25 07:01:54 1012.000 4.1 84 1.6         84.95
2018-Oct-25 08:01:14 1011.900 4.1 85 1.7         84.95
2018-Oct-25 09:01:40 1012.200 4.4 85 2.1         84.95
2018-Oct-25 10:01:57 1012.500 8.9 87 6.9         84.95
2018-Oct-25 11:01:50 1012.400 16.5 62 9.2         84.95
2018-Oct-25 12:01:51 1011.800 22.8 41 8.8         84.95
2018-Oct-25 13:02:04 1011.300 23.9 36 7.8         84.95
2018-Oct-25 14:01:44 1010.500 23.6 28 3.9         84.95
2018-Oct-25 15:01:53 1010.000 25.3 28 5.4 1.1 WNW     84.95
2018-Oct-25 16:02:05 1009.600 25.8 27 5.2         84.95
2018-Oct-25 17:01:48 1009.600 24.4 27 4.0 1.0 WNW     84.95
2018-Oct-25 18:01:47 1009.200 23.6 28 3.9         84.95
2018-Oct-25 19:01:51 1009.600 17.4 42 4.3         84.95
2018-Oct-25 20:01:43 1009.800 12.8 55 3.9         84.95
2018-Oct-25 21:01:44 1010.300 9.8 66 3.7         84.95
2018-Oct-25 22:01:38 1010.100 8.4 70 3.3         84.95
2018-Oct-25 23:01:37 1010.100 8.1 72 3.4         84.95

Temperatura Máxima:25°    Temperatura Mínima:
Presión Máxima:1013.400 Hpa    Presión Mínima:1009.200 Hpa


Volver